Rancho Santa Fe (307) Station Data

Red Flag Warning: No
Fire Weather Zone: 243
SDGE Region: North Coast
Lat/Lon: 33.033/-117.189

Observations

Time Wind Speed/Gust Temp(F) RH Fuel Moist Fuel Temp(F) Dewpt(F) Tmax(F) Tmin(F) Accum Precip 10-min Precip SL Press(mb)
6/27 5:00pm 249 6 G 10 75° 63% - - 62° 81.7° 55.2° - - -
6/27 4:50pm 243 4 G 9 76° 62% - - 62° 81.7° 55.2° - - -
6/27 4:40pm 241 5 G 10 75° 63% - - 62° 81.7° 55.2° - - -
6/27 4:30pm 235 5 G 8 75° 64% - - 62° 81.7° 55.2° - - -
6/27 4:20pm 241 6 G 10 75° 62% - - 62° 81.7° 55.2° - - -
6/27 4:10pm 236 6 G 10 76° 58% - - 60° 81.7° 55.2° - - -
6/27 4:00pm 234 6 G 10 76° 56% - - 59° 81.7° 55.2° - - -
6/27 3:50pm 254 5 G 9 76° 55% - - 59° 81.7° 55.2° - - -
6/27 3:40pm 242 5 G 9 76° 55% - - 59° 81.7° 55.2° - - -
6/27 3:30pm 226 5 G 8 77° 53% - - 58° 81.7° 55.2° - - -
6/27 3:20pm 236 5 G 9 76° 55% - - 59° 81.7° 55.2° - - -
6/27 3:10pm 236 6 G 10 76° 56% - - 60° 81.7° 55.2° - - -
6/27 3:00pm 219 6 G 11 77° 58% - - 61° 81.7° 55.2° - - -
6/27 2:50pm 212 6 G 11 76° 59% - - 61° 81.7° 55.2° - - -
6/27 2:40pm 229 6 G 10 76° 60% - - 61° 81.7° 55.2° - - -
6/27 2:30pm 236 7 G 11 76° 60% - - 61° 81.7° 55.2° - - -
6/27 2:20pm 232 6 G 12 78° 59% - - 62° 81.7° 55.2° - - -
6/27 1:50pm 232 7 G 10 77° 61% - - 62° 81.7° 55.2° - - -
6/27 1:40pm 234 7 G 11 76° 63% - - 63° 81.7° 55.2° - - -
6/27 1:30pm 229 7 G 12 77° 61% - - 63° 81.7° 55.2° - - -
6/27 1:20pm 231 7 G 11 78° 58% - - 61° 81.7° 55.2° - - -
6/27 1:10pm 244 7 G 11 78° 58% - - 62° 81.7° 55.2° - - -
6/27 1:00pm 244 7 G 11 79° 57% - - 63° 81.7° 55.2° - - -
6/27 12:50pm 231 7 G 11 81° 54% - - 62° 81.7° 55.2° - - -
6/27 12:40pm 226 5 G 9 81° 53% - - 62° 81.7° 55.2° - - -
6/27 12:30pm 229 5 G 9 80° 54% - - 62° 81.7° 55.2° - - -
6/27 12:20pm 226 6 G 9 79° 56% - - 62° 81.7° 55.2° - - -
6/27 12:10pm 231 7 G 10 79° 55% - - 62° 81.7° 55.2° - - -
6/27 12:00pm 236 6 G 9 79° 54% - - 61° 81.7° 55.2° - - -
6/27 11:50am 235 7 G 10 78° 54% - - 61° 81.7° 55.2° - - -
6/27 11:40am 232 6 G 10 79° 53% - - 60° 81.7° 55.2° - - -
6/27 11:30am 246 6 G 9 79° 54% - - 61° 81.7° 55.2° - - -
6/27 11:20am 253 7 G 11 79° 53% - - 61° 81.7° 55.2° - - -
6/27 11:10am 250 6 G 9 81° 54% - - 62° 81.7° 55.2° - - -
6/27 11:00am 235 5 G 8 80° 57% - - 64° 81.7° 55.2° - - -
6/27 10:50am 253 5 G 8 80° 56% - - 63° 81.7° 55.2° - - -
6/27 10:40am 231 4 G 7 81° 56% - - 64° 81.7° 55.2° - - -
6/27 10:30am 210 5 G 8 81° 58% - - 64° 81.2° 55.2° - - -
6/27 10:20am 216 5 G 8 80° 59% - - 65° 81.2° 55.2° - - -
6/27 10:10am 235 4 G 7 81° 58% - - 65° 81.2° 55.2° - - -
6/27 10:00am 225 4 G 6 80° 58% - - 64° 81.2° 55.2° - - -
6/27 9:50am 236 2 G 5 80° 53% - - 62° 81.2° 55.2° - - -
6/27 9:40am 244 3 G 6 79° 48% - - 58° 80.5° 55.2° - - -
6/27 9:30am 250 2 G 6 78° 49% - - 58° 79.4° 55.2° - - -
6/27 9:20am 243 4 G 6 77° 55% - - 59° 77.9° 55.2° - - -
6/27 9:10am 237 2 G 5 76° 51% - - 57° 77.6° 55.2° - - -
6/27 9:00am 251 2 G 5 75° 56% - - 58° 76.1° 55.2° - - -
6/27 8:50am 224 2 G 5 75° 55% - - 58° 76° 55.2° - - -
6/27 8:40am 226 2 G 5 74° 52% - - 55° 74.5° 55.2° - - -
6/27 8:30am 234 2 G 4 73° 59% - - 57° 73.7° 55.2° - - -
6/27 8:20am 262 2 G 3 72° 60% - - 57° 72.7° 55.2° - - -
6/27 8:10am 215 1 G 2 72° 60% - - 57° 72.5° 55.2° - - -
6/27 8:00am 205 1 G 1 70° 62% - - 56° 71.1° 55.2° - - -
6/27 7:50am 156 1 G 1 68° 72% - - 58° 69.3° 55.2° - - -
6/27 7:40am 357 1 G 1 66° 74% - - 57° 66.6° 55.2° - - -
6/27 7:30am 75 1 G 2 64° 76% - - 56° 64.9° 55.2° - - -
6/27 7:20am 71 1 G 3 63° 80% - - 56° 64.2° 55.2° - - -
6/27 7:10am 73 1 G 3 61° 83% - - 56° 64.2° 55.2° - - -
6/27 7:00am 118 1 G 1 59° 87% - - 56° 64.2° 55.2° - - -
6/27 6:50am 54 1 G 1 58° 90% - - 55° 64.2° 55.2° - - -
6/27 6:40am 41 1 G 1 58° 91% - - 55° 64.2° 55.2° - - -
6/27 6:30am 252 1 G 1 58° 93% - - 56° 64.2° 55.2° - - -
6/27 6:20am 252 1 G 1 56° 93% - - 54° 64.2° 55.2° - - -
6/27 6:10am 252 1 G 1 56° 93% - - 54° 64.2° 55.2° - - -
6/27 6:00am 252 1 G 1 56° 92% - - 54° 64.2° 55.2° - - -
6/27 5:50am 252 1 G 1 56° 92% - - 54° 64.2° 55.2° - - -
6/27 5:40am 267 1 G 1 56° 92% - - 54° 64.2° 55.2° - - -
6/27 5:30am 313 1 G 1 57° 92% - - 54° 64.2° 55.2° - - -
6/27 5:20am 351 1 G 2 56° 91% - - 54° 64.2° 55.2° - - -
6/27 5:10am 289 1 G 1 56° 92% - - 54° 64.2° 55.2° - - -
6/27 5:00am 47 1 G 2 56° 91% - - 54° 64.2° 55.5° - - -
6/27 4:50am 67 1 G 2 57° 90% - - 54° 64.2° 55.9° - - -
6/27 4:40am 244 1 G 1 57° 90% - - 54° 64.2° 56.7° - - -
6/27 4:30am 271 1 G 3 57° 90% - - 54° 64.2° 56.7° - - -
6/27 4:20am 13 1 G 1 58° 91% - - 55° 64.2° 57.1° - - -
6/27 4:10am 268 1 G 1 58° 90% - - 55° 64.2° 57.1° - - -
6/27 4:00am 285 1 G 1 58° 89% - - 54° 64.2° 57.2° - - -
6/27 3:50am 314 1 G 1 58° 88% - - 55° 64.2° 57.2° - - -
6/27 3:40am 306 1 G 1 59° 89% - - 55° 64.2° 57.2° - - -
6/27 3:30am 41 1 G 1 58° 89% - - 55° 64.2° 57.2° - - -
6/27 3:20am 51 1 G 2 59° 90% - - 56° 64.2° 57.8° - - -
6/27 3:10am 267 1 G 1 59° 89% - - 56° 64.2° 58.6° - - -
6/27 3:00am 261 1 G 1 60° 88% - - 56° 64.2° 58.9° - - -
6/27 2:50am 302 1 G 1 60° 85% - - 55° 64.2° 58.9° - - -
6/27 2:40am 347 1 G 2 60° 87% - - 56° 64.2° 58.9° - - -
6/27 2:30am 357 1 G 1 60° 88% - - 56° 64.2° 59° - - -
6/27 2:20am 329 1 G 2 60° 90% - - 57° 64.2° 59° - - -
6/27 2:10am 271 1 G 1 60° 90% - - 57° 64.2° 59.1° - - -
6/27 2:00am 35 1 G 1 60° 90% - - 57° 64.2° 59.2° - - -
6/27 1:50am 45 1 G 1 60° 90% - - 57° 64.2° 59.2° - - -
6/27 1:40am 225 1 G 1 61° 91% - - 58° 64.2° 59.8° - - -
6/27 1:30am 294 1 G 1 60° 90% - - 57° 64.2° 59.8° - - -
6/27 1:20am 5 1 G 1 61° 91% - - 58° 64.2° 60.2° - - -
6/27 1:10am 334 1 G 1 61° 91% - - 59° 64.2° 60.4° - - -
6/27 1:00am 305 1 G 1 62° 91% - - 59° 64.2° 60.4° - - -
6/27 12:50am 44 1 G 1 62° 90% - - 59° 64.2° 60.4° - - -
6/27 12:40am 63 1 G 1 61° 89% - - 58° 64.2° 60.4° - - -
6/27 12:30am 71 1 G 1 62° 90% - - 59° 64.2° 61° - - -
6/27 12:20am 241 1 G 1 63° 90% - - 60° 64.2° 62.2° - - -
6/27 12:10am 244 1 G 1 64° 90% - - 61° 64.2° 63.2° - - -
6/27 12:00am 274 1 G 1 64° 90% - - 61° 86.8° 57.2° - - -
6/26 11:50pm 334 1 G 1 64° 90% - - 61° 86.8° 57.2° - - -
6/26 11:40pm 240 1 G 2 64° 90% - - 61° 86.8° 57.2° - - -
6/26 11:30pm 237 1 G 1 64° 89% - - 61° 86.8° 57.2° - - -
6/26 11:20pm 240 1 G 1 64° 88% - - 61° 86.8° 57.2° - - -
6/26 11:10pm 260 1 G 1 65° 87% - - 61° 86.8° 57.2° - - -
6/26 11:00pm 251 1 G 2 65° 88% - - 61° 86.8° 57.2° - - -
6/26 10:50pm 232 1 G 1 64° 88% - - 61° 86.8° 57.2° - - -
6/26 10:40pm 152 1 G 1 64° 88% - - 61° 86.8° 57.2° - - -
6/26 10:30pm 180 1 G 1 65° 88% - - 61° 86.8° 57.2° - - -
6/26 10:20pm 180 1 G 1 65° 88% - - 61° 86.8° 57.2° - - -
6/26 10:10pm 207 1 G 1 65° 87% - - 61° 86.8° 57.2° - - -
6/26 10:00pm 238 1 G 1 65° 86% - - 61° 86.8° 57.2° - - -
6/26 9:50pm 237 1 G 1 66° 86% - - 62° 86.8° 57.2° - - -
6/26 9:40pm 68 1 G 1 66° 85% - - 62° 86.8° 57.2° - - -
6/26 9:30pm 184 1 G 1 67° 85% - - 62° 86.8° 57.2° - - -
6/26 9:20pm 276 1 G 1 67° 85% - - 63° 86.8° 57.2° - - -
6/26 9:10pm 247 1 G 2 68° 81% - - 62° 86.8° 57.2° - - -
6/26 9:00pm 275 1 G 3 68° 78% - - 61° 86.8° 57.2° - - -
6/26 8:50pm 249 1 G 4 68° 76% - - 61° 86.8° 57.2° - - -
6/26 8:40pm 229 1 G 3 69° 73% - - 60° 86.8° 57.2° - - -
6/26 8:30pm 237 2 G 4 70° 70% - - 59° 86.8° 57.2° - - -
6/26 8:20pm 261 2 G 4 71° 67% - - 59° 86.8° 57.2° - - -
6/26 8:10pm 249 2 G 4 72° 63% - - 59° 86.8° 57.2° - - -
6/26 8:00pm 241 2 G 4 74° 61% - - 59° 86.8° 57.2° - - -
6/26 7:50pm 244 2 G 4 75° 60% - - 60° 86.8° 57.2° - - -
6/26 7:40pm 245 3 G 4 76° 58% - - 60° 86.8° 57.2° - - -
6/26 7:30pm 243 2 G 3 77° 56% - - 60° 86.8° 57.2° - - -
6/26 7:20pm 236 2 G 4 77° 55% - - 60° 86.8° 57.2° - - -
6/26 7:10pm 232 3 G 4 78° 54% - - 60° 86.8° 57.2° - - -
6/26 7:00pm 243 3 G 5 78° 54% - - 60° 86.8° 57.2° - - -
6/26 6:50pm 229 4 G 6 79° 54% - - 61° 86.8° 57.2° - - -
6/26 6:40pm 225 3 G 5 80° 52% - - 61° 86.8° 57.2° - - -
6/26 6:30pm 221 3 G 6 80° 52% - - 61° 86.8° 57.2° - - -
6/26 6:20pm 236 5 G 7 80° 51% - - 61° 86.8° 57.2° - - -
6/26 6:10pm 237 4 G 7 82° 48% - - 60° 86.8° 57.2° - - -
6/26 6:00pm 276 3 G 7 83° 42% - - 57° 86.8° 57.2° - - -
6/26 5:50pm 296 3 G 7 83° 39% - - 56° 86.8° 57.2° - - -
6/26 5:40pm 281 5 G 9 83° 38% - - 55° 86.8° 57.2° - - -
6/26 5:30pm 278 5 G 9 84° 37% - - 55° 86.8° 57.2° - - -
6/26 5:20pm 273 4 G 8 84° 40% - - 57° 86.8° 57.2° - - -
6/26 5:10pm 223 5 G 8 83° 47% - - 61° 86.8° 57.2° - - -
6/26 5:00pm 246 4 G 8 84° 45% - - 61° 86.8° 57.2° - - -
6/26 4:50pm 256 4 G 8 86° 39% - - 58° 86.8° 57.2° - - -
6/26 4:40pm 292 4 G 10 86° 37% - - 57° 86.6° 57.2° - - -
6/26 4:30pm 292 3 G 7 86° 37% - - 56° 86.6° 57.2° - - -
6/26 4:20pm 275 4 G 10 86° 38% - - 57° 86.5° 57.2° - - -
6/26 4:10pm 263 4 G 9 85° 39% - - 57° 86.5° 57.2° - - -
6/26 4:00pm 280 4 G 8 85° 40% - - 59° 86.5° 57.2° - - -
6/26 3:50pm 250 4 G 9 85° 46% - - 62° 85.6° 57.2° - - -
6/26 3:40pm 237 5 G 10 84° 48% - - 62° 85.4° 57.2° - - -
6/26 3:30pm 246 5 G 10 84° 47% - - 62° 85.4° 57.2° - - -
6/26 3:20pm 251 3 G 9 84° 47% - - 62° 85.1° 57.2° - - -
6/26 3:10pm 240 4 G 10 83° 50% - - 63° 83.9° 57.2° - - -
6/26 3:00pm 236 6 G 10 83° 52% - - 63° 83.3° 57.2° - - -
6/26 2:50pm 247 5 G 10 82° 53% - - 63° 83.3° 57.2° - - -
6/26 2:40pm 244 6 G 10 82° 54% - - 63° 83.3° 57.2° - - -
6/26 2:30pm 243 6 G 9 82° 53% - - 63° 83.3° 57.2° - - -
6/26 2:20pm 228 6 G 10 81° 54% - - 63° 83.3° 57.2° - - -
6/26 2:10pm 246 6 G 9 82° 53% - - 63° 83.3° 57.2° - - -
6/26 2:00pm 236 5 G 8 82° 52% - - 63° 83° 57.2° - - -
6/26 1:50pm 240 4 G 8 82° 52% - - 63° 82.7° 57.2° - - -
6/26 1:40pm 248 5 G 8 81° 53% - - 62° 82.7° 57.2° - - -
6/26 1:30pm 242 5 G 8 80° 55% - - 62° 82.7° 57.2° - - -
6/26 1:20pm 272 5 G 8 79° 56% - - 62° 82.7° 57.2° - - -
6/26 1:10pm 257 5 G 9 79° 57% - - 63° 82.7° 57.2° - - -
6/26 1:00pm 245 5 G 10 79° 59% - - 63° 82.7° 57.2° - - -
6/26 12:50pm 245 5 G 9 79° 58% - - 63° 82.7° 57.2° - - -
6/26 12:40pm 238 5 G 9 79° 59% - - 64° 82.7° 57.2° - - -
6/26 12:30pm 236 5 G 9 79° 59% - - 63° 82.7° 57.2° - - -
6/26 12:20pm 251 5 G 9 79° 60% - - 64° 82.7° 57.2° - - -
6/26 12:10pm 255 5 G 8 79° 60% - - 64° 82.7° 57.2° - - -
6/26 12:00pm 250 4 G 8 78° 61% - - 64° 82.7° 57.2° - - -
6/26 11:50am 257 4 G 8 78° 61% - - 64° 82.7° 57.2° - - -
6/26 11:40am 259 4 G 8 78° 62% - - 64° 82.7° 57.2° - - -
6/26 11:30am 237 5 G 9 78° 61% - - 63° 82.7° 57.2° - - -
6/26 11:20am 256 5 G 9 78° 61% - - 63° 82.7° 57.2° - - -
6/26 11:10am 246 6 G 9 78° 60% - - 63° 82.7° 57.2° - - -
6/26 11:00am 238 6 G 9 78° 59% - - 63° 82.7° 57.2° - - -
6/26 10:50am 239 6 G 9 79° 58% - - 64° 82.7° 57.2° - - -
6/26 10:40am 256 5 G 8 80° 59% - - 64° 82.7° 57.2° - - -
6/26 10:30am 240 4 G 7 80° 59% - - 64° 82.7° 57.2° - - -
6/26 10:20am 240 4 G 8 80° 59% - - 65° 82.7° 57.2° - - -
6/26 10:10am 229 3 G 8 81° 57% - - 64° 82.7° 57.2° - - -
6/26 10:00am 225 2 G 7 80° 55% - - 63° 81.9° 57.2° - - -
6/26 9:50am 208 3 G 7 79° 58% - - 63° 80.3° 57.2° - - -
6/26 9:40am 251 2 G 6 78° 60% - - 63° 79.2° 57.2° - - -
6/26 9:30am 249 3 G 6 77° 62% - - 63° 77.9° 57.2° - - -
6/26 9:20am 243 3 G 6 77° 62% - - 63° 77.6° 57.2° - - -
6/26 9:10am 210 2 G 4 76° 63% - - 63° 77.1° 57.2° - - -
6/26 9:00am 210 2 G 6 75° 65% - - 63° 76.6° 57.2° - - -
6/26 8:50am 215 1 G 4 74° 65% - - 62° 75.5° 57.2° - - -
6/26 8:40am 247 1 G 4 73° 67% - - 61° 73.5° 57.2° - - -
6/26 8:30am 235 2 G 4 72° 68% - - 61° 73° 57.2° - - -
6/26 8:20am 216 2 G 4 72° 71% - - 62° 72.5° 57.2° - - -
6/26 8:10am 264 1 G 1 71° 72% - - 61° 71.8° 57.2° - - -
6/26 8:00am 114 1 G 2 69° 78% - - 62° 70.5° 57.2° - - -
6/26 7:50am 281 1 G 1 67° 83% - - 61° 67.7° 57.2° - - -
6/26 7:40am 265 1 G 2 65° 87% - - 61° 66.3° 57.2° - - -
6/26 7:30am 211 1 G 1 64° 92% - - 62° 65.1° 57.2° - - -
6/26 7:20am 182 1 G 1 63° 94% - - 61° 64° 57.2° - - -
6/26 7:10am 208 1 G 1 62° 94% - - 61° 63.2° 57.2° - - -
6/26 7:00am 241 1 G 1 61° 95% - - 60° 63.2° 57.2° - - -
6/26 6:50am 285 1 G 1 60° 95% - - 59° 63.2° 57.2° - - -
6/26 6:40am 324 1 G 1 60° 95% - - 58° 63.2° 57.2° - - -
6/26 6:30am 326 1 G 1 59° 95% - - 58° 63.2° 57.2° - - -
6/26 6:20am 305 1 G 2 59° 95% - - 57° 63.2° 57.2° - - -
6/26 6:10am 337 1 G 1 58° 95% - - 57° 63.2° 57.2° - - -
6/26 6:00am 70 1 G 1 58° 95% - - 56° 63.2° 57.2° - - -